Time;durP1;ratioP1;P1;durP2;ratioP2;P2;SDS_P1;SDS_P2;PMS_P1;PMS_P2;Temp;Humidity;BMP_temperature;BMP_pressure;BME280_temperature;BME280_humidity;BME280_pressure;Samples;Min_cycle;Max_cycle;Signal;HPM_P1;HPM_P2
2023/08/03 00:00:38;;;;;;;7.82;2.88;;;15.90;99.90;;;;;;5036879;28;20425;-81
2023/08/03 00:03:05;;;;;;;7.10;3.10;;;16.10;99.90;;;;;;5069867;28;20441;-82
2023/08/03 00:05:31;;;;;;;8.35;3.40;;;16.10;99.90;;;;;;5077428;28;20433;-81
2023/08/03 00:07:57;;;;;;;7.73;3.33;;;16.20;99.90;;;;;;5060256;28;20410;-81
2023/08/03 00:10:22;;;;;;;7.88;3.30;;;15.90;99.90;;;;;;5077399;28;20451;-81
2023/08/03 00:12:50;;;;;;;8.07;3.22;;;16.10;99.90;;;;;;5074281;28;20422;-82
2023/08/03 00:15:16;;;;;;;7.63;3.20;;;16.00;99.90;;;;;;5061129;28;20779;-80
2023/08/03 00:17:43;;;;;;;6.63;3.30;;;16.30;99.90;;;;;;5060248;28;20406;-81
2023/08/03 00:20:09;;;;;;;9.70;3.15;;;16.20;99.90;;;;;;5071311;28;20590;-80
2023/08/03 00:22:36;;;;;;;6.63;3.17;;;16.00;99.90;;;;;;5068411;28;20428;-81
2023/08/03 00:25:03;;;;;;;7.30;3.10;;;16.20;99.90;;;;;;5043860;28;20421;-81
2023/08/03 00:27:34;;;;;;;7.33;3.40;;;16.20;99.90;;;;;;5075507;28;20789;-81
2023/08/03 00:30:01;;;;;;;6.40;3.40;;;15.90;99.90;;;;;;5043107;28;20410;-80
2023/08/03 00:32:27;;;;;;;8.93;3.47;;;16.20;99.90;;;;;;5057872;28;21229;-80
2023/08/03 00:34:54;;;;;;;10.00;3.60;;;16.00;99.90;;;;;;5056883;28;21002;-80
2023/08/03 00:37:20;;;;;;;7.68;3.17;;;16.10;99.90;;;;;;5068136;28;20460;-80
2023/08/03 00:39:45;;;;;;;5.88;3.13;;;15.90;99.90;;;;;;5041967;28;20427;-80
2023/08/03 00:42:13;;;;;;;8.65;3.53;;;16.00;99.90;;;;;;5093272;28;20451;-78
2023/08/03 00:44:39;;;;;;;7.53;3.47;;;16.00;99.90;;;;;;5058278;28;20901;-82
2023/08/03 00:47:05;;;;;;;7.50;3.50;;;16.00;99.90;;;;;;5060316;28;20404;-80
2023/08/03 00:49:31;;;;;;;7.72;3.58;;;16.10;99.90;;;;;;5075688;28;20450;-80
2023/08/03 00:51:57;;;;;;;10.30;4.20;;;16.20;99.90;;;;;;5069905;28;20483;-80
2023/08/03 00:54:24;;;;;;;16.40;4.40;;;16.10;99.90;;;;;;5043125;28;20444;-78
2023/08/03 00:56:50;;;;;;;10.60;4.60;;;16.00;99.90;;;;;;5074722;28;20425;-79
2023/08/03 00:59:16;;;;;;;9.15;4.10;;;15.80;99.90;;;;;;5075900;28;20406;-78
2023/08/03 01:01:42;;;;;;;15.23;4.72;;;;;;;;;;5074093;28;20922;-78
2023/08/03 01:04:09;;;;;;;8.25;4.20;;;16.10;99.90;;;;;;5049466;28;21306;-79
2023/08/03 01:06:35;;;;;;;11.90;4.00;;;15.90;99.90;;;;;;5071776;28;20421;-79
2023/08/03 01:09:02;;;;;;;11.23;3.97;;;16.00;99.90;;;;;;5058150;28;20773;-79
2023/08/03 01:11:29;;;;;;;9.48;4.40;;;15.90;99.90;;;;;;5074674;28;20402;-80
2023/08/03 01:13:55;;;;;;;9.53;4.30;;;15.60;99.90;;;;;;5075695;28;20390;-79
2023/08/03 01:16:22;;;;;;;10.35;4.10;;;16.00;99.90;;;;;;5073972;28;20882;-79
2023/08/03 01:18:49;;;;;;;10.23;4.25;;;16.10;99.90;;;;;;5073700;28;20409;-78
2023/08/03 01:21:17;;;;;;;8.23;3.97;;;16.00;99.90;;;;;;5073722;28;20766;-80
2023/08/03 01:23:42;;;;;;;8.55;4.40;;;16.10;99.90;;;;;;5057474;28;20772;-79
2023/08/03 01:26:08;;;;;;;6.68;4.00;;;16.10;99.90;;;;;;5057018;28;20430;-79
2023/08/03 01:28:34;;;;;;;6.80;3.70;;;15.90;99.90;;;;;;5059221;28;20402;-79
2023/08/03 01:31:00;;;;;;;7.33;3.90;;;16.20;99.90;;;;;;5075145;28;20394;-80
2023/08/03 01:33:26;;;;;;;7.57;3.95;;;16.30;99.90;;;;;;5066004;28;20431;-78
2023/08/03 01:35:52;;;;;;;6.03;3.63;;;16.10;99.90;;;;;;5057459;28;20738;-80
2023/08/03 01:38:18;;;;;;;8.05;3.72;;;16.20;99.90;;;;;;5042361;28;20794;-79
2023/08/03 01:40:43;;;;;;;7.07;3.35;;;16.20;99.90;;;;;;5075308;28;20413;-80
2023/08/03 01:43:09;;;;;;;6.93;3.60;;;16.40;99.90;;;;;;5048459;28;20428;-80
2023/08/03 01:45:35;;;;;;;4.80;3.33;;;16.00;99.90;;;;;;5074827;28;20422;-80
2023/08/03 01:48:00;;;;;;;4.90;3.15;;;16.30;99.90;;;;;;5073421;28;20419;-81
2023/08/03 01:50:26;;;;;;;6.70;3.60;;;16.30;99.90;;;;;;5053839;28;20978;-80
2023/08/03 01:52:55;;;;;;;6.53;3.40;;;16.30;99.90;;;;;;5062301;28;20434;-80
2023/08/03 01:55:20;;;;;;;6.87;3.20;;;16.20;99.90;;;;;;5037885;28;20935;-79
2023/08/03 01:57:46;;;;;;;5.80;3.13;;;16.10;99.90;;;;;;5055263;28;20404;-79
2023/08/03 02:00:12;;;;;;;6.45;3.58;;;16.30;99.90;;;;;;5050004;28;20767;-78
2023/08/03 02:02:38;;;;;;;6.05;3.60;;;16.00;99.90;;;;;;5052934;28;20425;-79
2023/08/03 02:05:06;;;;;;;7.18;3.83;;;16.10;99.90;;;;;;5057969;28;20508;-79
2023/08/03 02:07:46;;;;;;;9.77;3.92;;;16.30;99.90;;;;;;5092165;28;20394;-79
2023/08/03 02:10:14;;;;;;;6.20;3.70;;;16.20;99.90;;;;;;5048500;28;20506;-79
2023/08/03 02:12:40;;;;;;;6.78;3.65;;;16.20;99.90;;;;;;5043107;28;20423;-80
2023/08/03 02:15:06;;;;;;;8.07;3.65;;;16.10;99.90;;;;;;5054453;28;20418;-79
2023/08/03 02:17:33;;;;;;;7.33;3.70;;;16.10;99.90;;;;;;5040858;28;20727;-80
2023/08/03 02:19:59;;;;;;;5.72;3.45;;;16.30;99.90;;;;;;5045864;28;20426;-80
2023/08/03 02:22:25;;;;;;;5.40;3.30;;;16.40;99.90;;;;;;5053980;28;20411;-79
2023/08/03 02:24:51;;;;;;;5.83;3.60;;;16.30;99.90;;;;;;5057866;28;20421;-81
2023/08/03 02:27:16;;;;;;;6.37;3.97;;;17.60;99.90;;;;;;5043983;28;20896;-80
2023/08/03 02:29:42;;;;;;;6.63;3.70;;;16.60;99.90;;;;;;5043555;28;20910;-81
2023/08/03 02:32:08;;;;;;;6.03;3.60;;;16.50;99.90;;;;;;5056549;28;20398;-80
2023/08/03 02:34:34;;;;;;;5.78;4.03;;;16.20;99.90;;;;;;5050935;28;20422;-80
2023/08/03 02:36:59;;;;;;;6.53;4.10;;;16.60;99.90;;;;;;5037692;28;20570;-80
2023/08/03 02:39:25;;;;;;;6.97;4.50;;;16.40;99.90;;;;;;5035322;28;20470;-80
2023/08/03 02:41:52;;;;;;;6.53;4.17;;;16.30;99.90;;;;;;5055534;28;20425;-80
2023/08/03 02:44:18;;;;;;;5.88;4.15;;;16.50;99.90;;;;;;5057688;28;20433;-80
2023/08/03 02:46:44;;;;;;;5.53;4.15;;;16.00;99.90;;;;;;5072050;28;20583;-80
2023/08/03 02:49:10;;;;;;;7.40;4.67;;;16.40;99.90;;;;;;5042591;28;20459;-79
2023/08/03 02:51:35;;;;;;;7.60;4.53;;;16.50;99.90;;;;;;5066907;28;20424;-79
2023/08/03 02:54:01;;;;;;;6.30;4.47;;;16.20;99.90;;;;;;5056965;28;20398;-79
2023/08/03 02:56:27;;;;;;;9.85;5.28;;;16.50;99.90;;;;;;5055563;28;20424;-80
2023/08/03 02:58:54;;;;;;;7.80;5.28;;;16.50;99.90;;;;;;5040693;28;20490;-81
2023/08/03 03:01:19;;;;;;;8.35;5.22;;;16.50;99.90;;;;;;5045994;28;20438;-79
2023/08/03 03:03:45;;;;;;;10.60;5.57;;;16.60;99.90;;;;;;5068565;28;20418;-80
2023/08/03 03:06:11;;;;;;;9.60;5.67;;;16.40;99.90;;;;;;5047440;28;20539;-79
2023/08/03 03:08:36;;;;;;;9.17;5.67;;;16.40;99.90;;;;;;5050485;28;20447;-80
2023/08/03 03:11:02;;;;;;;8.70;5.88;;;16.20;99.90;;;;;;5068390;28;20421;-80
2023/08/03 03:13:28;;;;;;;10.00;6.10;;;16.20;99.90;;;;;;5074020;28;20406;-79
2023/08/03 03:15:53;;;;;;;11.67;6.20;;;16.20;99.90;;;;;;5057874;28;20402;-79
2023/08/03 03:18:19;;;;;;;12.20;6.43;;;16.30;99.90;;;;;;5051913;28;20435;-79
2023/08/03 03:20:45;;;;;;;9.32;6.32;;;16.50;99.90;;;;;;5039421;28;20468;-80
2023/08/03 03:23:11;;;;;;;12.43;6.90;;;16.40;99.90;;;;;;5057549;28;20476;-79
2023/08/03 03:25:36;;;;;;;11.52;7.00;;;16.40;99.90;;;;;;5070020;28;20430;-80
2023/08/03 03:28:04;;;;;;;10.73;6.77;;;16.40;99.90;;;;;;5076335;28;20394;-80
2023/08/03 03:30:33;;;;;;;10.80;7.30;;;16.70;99.90;;;;;;5074384;28;20508;-81
2023/08/03 03:32:59;;;;;;;14.00;8.20;;;16.40;99.90;;;;;;5075566;28;21002;-80
2023/08/03 03:35:25;;;;;;;11.52;7.70;;;16.60;99.90;;;;;;5059903;28;20448;-81
2023/08/03 03:37:51;;;;;;;12.13;8.30;;;16.20;99.90;;;;;;5059188;28;20433;-81
2023/08/03 03:40:17;;;;;;;12.35;7.65;;;16.40;99.90;;;;;;5074898;28;20422;-81
2023/08/03 03:42:43;;;;;;;15.03;9.07;;;16.40;99.90;;;;;;5059169;28;20834;-81
2023/08/03 03:45:08;;;;;;;13.87;8.97;;;16.40;99.90;;;;;;5044953;28;20488;-81
2023/08/03 03:47:34;;;;;;;14.67;8.83;;;16.30;99.90;;;;;;5040398;28;20493;-81
2023/08/03 03:50:00;;;;;;;14.47;9.13;;;16.30;99.90;;;;;;5061570;28;20420;-81
2023/08/03 03:52:26;;;;;;;18.80;9.43;;;16.30;99.90;;;;;;5057457;28;20979;-81
2023/08/03 03:54:51;;;;;;;16.42;9.35;;;16.40;99.90;;;;;;5058769;28;20424;-80
2023/08/03 03:57:18;;;;;;;17.27;9.77;;;16.20;99.90;;;;;;5060607;28;20420;-81
2023/08/03 03:59:44;;;;;;;15.90;9.57;;;16.30;99.90;;;;;;5040610;28;20432;-81
2023/08/03 04:02:09;;;;;;;18.73;9.30;;;16.30;99.90;;;;;;5044956;28;20417;-81
2023/08/03 04:04:35;;;;;;;15.07;9.77;;;16.60;99.90;;;;;;5073919;28;20449;-81
2023/08/03 04:07:01;;;;;;;18.13;9.55;;;16.40;99.90;;;;;;5074832;28;20414;-80
2023/08/03 04:09:27;;;;;;;17.58;9.35;;;16.30;99.90;;;;;;5049259;28;20438;-80
2023/08/03 04:11:53;;;;;;;16.60;9.13;;;16.40;99.90;;;;;;5070593;28;20451;-80
2023/08/03 04:14:18;;;;;;;18.03;9.73;;;16.40;99.90;;;;;;5068820;28;20426;-80
2023/08/03 04:16:44;;;;;;;16.13;9.03;;;16.60;99.90;;;;;;5055870;28;20419;-80
2023/08/03 04:19:10;;;;;;;19.90;9.07;;;16.30;99.90;;;;;;5023933;28;20487;-80
2023/08/03 04:21:35;;;;;;;17.38;8.30;;;16.50;99.90;;;;;;5089019;28;20424;-81
2023/08/03 04:24:01;;;;;;;18.52;8.80;;;16.40;99.90;;;;;;5040003;28;20407;-79
2023/08/03 04:26:27;;;;;;;18.83;8.87;;;16.20;99.90;;;;;;5040796;28;20458;-78
2023/08/03 04:28:52;;;;;;;17.70;8.02;;;16.40;99.90;;;;;;5058896;28;20770;-78
2023/08/03 04:31:18;;;;;;;14.25;6.85;;;16.40;99.90;;;;;;5059864;28;20493;-79
2023/08/03 04:33:44;;;;;;;16.23;6.10;;;16.60;99.90;;;;;;5060195;28;20397;-80
2023/08/03 04:36:09;;;;;;;14.80;6.20;;;16.50;99.90;;;;;;5067095;28;20420;-80
2023/08/03 04:38:35;;;;;;;13.05;5.60;;;16.60;99.90;;;;;;5043176;28;20917;-80
2023/08/03 04:41:01;;;;;;;15.57;5.55;;;16.40;99.90;;;;;;5074336;28;20437;-80
2023/08/03 04:43:30;;;;;;;10.30;4.88;;;16.60;99.90;;;;;;5033704;28;20430;-80
2023/08/03 04:45:55;;;;;;;13.25;4.60;;;16.40;99.90;;;;;;5023255;28;20423;-80
2023/08/03 04:48:21;;;;;;;13.63;4.90;;;16.40;99.90;;;;;;5057149;28;20807;-80
2023/08/03 04:50:47;;;;;;;7.27;4.20;;;16.50;99.90;;;;;;5075555;28;20462;-79
2023/08/03 04:53:13;;;;;;;12.17;4.80;;;16.50;99.90;;;;;;5075794;28;20414;-79
2023/08/03 04:55:38;;;;;;;9.38;4.70;;;16.40;99.90;;;;;;5087837;28;20547;-80
2023/08/03 04:58:04;;;;;;;9.07;4.47;;;16.50;99.90;;;;;;5049752;28;20765;-79
2023/08/03 05:00:30;;;;;;;11.63;4.63;;;16.30;99.90;;;;;;5065626;28;20493;-79
2023/08/03 05:02:55;;;;;;;10.70;4.70;;;16.30;99.90;;;;;;5052076;28;20434;-79
2023/08/03 05:05:21;;;;;;;10.35;4.85;;;;;;;;;;5068806;28;20437;-81
2023/08/03 05:07:47;;;;;;;10.20;4.55;;;16.50;99.90;;;;;;5074580;28;20444;-81
2023/08/03 05:10:13;;;;;;;11.13;4.78;;;16.30;99.90;;;;;;5068757;28;20415;-81
2023/08/03 05:12:41;;;;;;;10.10;4.38;;;16.40;99.90;;;;;;5067643;28;20411;-80
2023/08/03 05:15:13;;;;;;;12.88;4.57;;;16.30;99.90;;;;;;5067178;28;20900;-81
2023/08/03 05:17:38;;;;;;;10.93;4.38;;;16.40;99.90;;;;;;5091709;28;20414;-79
2023/08/03 05:20:05;;;;;;;10.45;4.60;;;16.40;99.90;;;;;;5058577;28;20422;-80
2023/08/03 05:22:30;;;;;;;10.63;4.13;;;16.30;99.90;;;;;;5067573;28;20414;-80
2023/08/03 05:24:56;;;;;;;11.77;4.60;;;16.10;99.90;;;;;;5039881;28;20408;-80
2023/08/03 05:27:22;;;;;;;11.70;4.70;;;18.00;99.90;;;;;;5017836;28;20569;-80
2023/08/03 05:29:48;;;;;;;10.88;4.90;;;16.50;99.90;;;;;;5071409;28;20994;-79
2023/08/03 05:32:13;;;;;;;11.45;4.75;;;16.30;99.90;;;;;;5074003;28;20442;-80
2023/08/03 05:34:39;;;;;;;13.93;5.60;;;;;;;;;;5060163;28;20940;-79
2023/08/03 05:37:05;;;;;;;12.43;4.97;;;16.50;99.90;;;;;;5058905;28;20416;-80
2023/08/03 05:39:31;;;;;;;17.65;5.25;;;16.40;99.90;;;;;;5059077;28;20455;-81
2023/08/03 05:41:59;;;;;;;12.80;5.13;;;16.40;99.90;;;;;;5092909;28;20418;-81
2023/08/03 05:44:25;;;;;;;17.60;4.93;;;16.60;99.90;;;;;;5057958;28;20947;-81
2023/08/03 05:46:50;;;;;;;13.02;5.10;;;16.70;99.90;;;;;;5049306;28;20514;-81
2023/08/03 05:49:16;;;;;;;12.00;4.78;;;16.60;99.90;;;;;;5055575;28;20485;-82
2023/08/03 05:51:42;;;;;;;14.63;4.70;;;16.80;99.90;;;;;;5061731;28;20417;-82
2023/08/03 05:54:16;;;;;;;11.13;4.73;;;16.60;99.90;;;;;;5033634;28;20418;-79
2023/08/03 05:56:44;;;;;;;11.03;4.43;;;16.90;99.90;;;;;;5048123;28;20428;-78
2023/08/03 05:59:22;;;;;;;13.13;4.03;;;16.80;99.90;;;;;;5055212;28;20419;-78
2023/08/03 06:01:49;;;;;;;10.90;4.22;;;17.10;99.90;;;;;;5066410;28;20422;-79
2023/08/03 06:04:18;;;;;;;10.45;4.50;;;17.10;99.90;;;;;;5088635;28;20442;-77
2023/08/03 06:06:45;;;;;;;12.05;4.40;;;16.90;99.90;;;;;;5046388;28;20465;-78
2023/08/03 06:09:12;;;;;;;12.00;4.43;;;17.20;99.90;;;;;;5060894;28;20427;-78
2023/08/03 06:11:39;;;;;;;12.65;4.53;;;17.20;99.90;;;;;;5061522;28;20450;-77
2023/08/03 06:14:10;;;;;;;10.55;4.68;;;17.20;99.90;;;;;;5065455;28;21475;-77
2023/08/03 06:16:36;;;;;;;11.95;4.70;;;17.30;99.90;;;;;;5064076;28;20426;-78
2023/08/03 06:19:02;;;;;;;17.50;5.22;;;17.20;99.90;;;;;;5019102;28;20482;-79
2023/08/03 06:21:28;;;;;;;11.52;4.40;;;17.20;99.90;;;;;;5067471;28;20454;-79
2023/08/03 06:23:57;;;;;;;14.90;4.60;;;17.60;99.90;;;;;;5052828;28;20431;-78
2023/08/03 06:26:23;;;;;;;11.60;4.60;;;17.40;99.90;;;;;;5072111;28;20567;-79
2023/08/03 06:28:49;;;;;;;11.32;3.97;;;17.60;99.90;;;;;;5072774;28;20426;-78
2023/08/03 06:31:19;;;;;;;8.60;3.73;;;17.60;99.90;;;;;;5069994;28;20932;-78
2023/08/03 06:33:46;;;;;;;9.45;3.40;;;17.50;99.90;;;;;;5068147;28;20420;-79
2023/08/03 06:36:18;;;;;;;7.68;3.65;;;17.80;99.90;;;;;;5036703;28;20419;-79
2023/08/03 06:38:44;;;;;;;8.77;3.33;;;17.90;99.90;;;;;;5067547;28;20434;-78
2023/08/03 06:41:10;;;;;;;8.38;3.05;;;17.70;99.90;;;;;;5049341;28;20421;-79
2023/08/03 06:43:36;;;;;;;8.80;3.20;;;17.80;99.90;;;;;;5048263;28;20430;-79
2023/08/03 06:46:02;;;;;;;7.75;3.00;;;17.90;99.90;;;;;;5065618;28;20610;-78
2023/08/03 06:48:28;;;;;;;7.00;3.00;;;18.00;99.90;;;;;;5057591;28;20850;-87
2023/08/03 06:50:55;;;;;;;6.03;2.75;;;17.70;99.90;;;;;;5050812;28;20428;-80
2023/08/03 06:53:21;;;;;;;7.97;2.88;;;18.00;99.90;;;;;;5058791;28;20481;-81
2023/08/03 06:55:48;;;;;;;8.20;2.78;;;18.00;99.90;;;;;;5065797;28;21079;-81
2023/08/03 06:58:15;;;;;;;6.35;2.45;;;18.20;99.90;;;;;;5056692;28;20430;-80
2023/08/03 07:00:41;;;;;;;6.70;2.30;;;18.10;99.90;;;;;;5068880;28;20455;-80
2023/08/03 07:03:11;;;;;;;6.95;2.60;;;18.10;99.90;;;;;;5049873;28;20417;-80
2023/08/03 07:05:37;;;;;;;7.03;2.38;;;18.30;99.90;;;;;;5034698;28;20472;-80
2023/08/03 07:08:04;;;;;;;6.72;2.10;;;18.10;99.90;;;;;;5073575;28;20426;-81
2023/08/03 07:10:30;;;;;;;6.10;2.20;;;18.40;99.90;;;;;;5063203;28;20423;-80
2023/08/03 07:12:55;;;;;;;6.43;1.92;;;18.40;99.90;;;;;;5064466;28;20502;-82
2023/08/03 07:15:21;;;;;;;7.53;1.70;;;18.30;99.90;;;;;;5049858;28;20587;-82
2023/08/03 07:17:47;;;;;;;4.68;2.00;;;18.40;99.90;;;;;;5053457;28;20914;-82
2023/08/03 07:20:13;;;;;;;6.97;2.22;;;18.80;99.90;;;;;;5040783;28;20415;-80
2023/08/03 07:22:39;;;;;;;5.47;2.00;;;18.30;99.90;;;;;;5049968;28;20518;-80
2023/08/03 07:25:06;;;;;;;5.35;2.13;;;18.80;99.90;;;;;;5054235;28;20422;-80
2023/08/03 07:27:32;;;;;;;5.00;1.90;;;18.70;99.90;;;;;;5073335;28;20406;-86
2023/08/03 07:29:58;;;;;;;5.28;2.00;;;18.70;99.90;;;;;;5067783;28;20412;-84
2023/08/03 07:32:27;;;;;;;4.28;1.67;;;19.30;99.90;;;;;;5084680;28;20552;-80
2023/08/03 07:34:53;;;;;;;2.17;1.40;;;19.20;99.90;;;;;;5046445;28;20507;-81
2023/08/03 07:37:18;;;;;;;5.68;1.58;;;18.90;99.90;;;;;;5035435;28;20422;-80
2023/08/03 07:39:45;;;;;;;3.03;1.10;;;19.10;99.90;;;;;;5080487;28;20418;-81
2023/08/03 07:42:11;;;;;;;7.82;1.70;;;19.10;99.90;;;;;;5046164;28;20425;-82
2023/08/03 07:44:37;;;;;;;5.30;1.60;;;19.00;99.90;;;;;;5044425;28;20457;-81
2023/08/03 07:47:03;;;;;;;3.50;1.40;;;18.90;99.90;;;;;;5063906;28;20983;-82
2023/08/03 07:49:29;;;;;;;3.65;1.38;;;18.80;99.90;;;;;;5048920;28;20420;-84
2023/08/03 07:51:55;;;;;;;3.13;1.20;;;19.00;99.90;;;;;;5038025;28;20509;-83
2023/08/03 07:54:20;;;;;;;4.63;1.33;;;19.00;99.90;;;;;;5019633;28;20415;-83
2023/08/03 07:56:46;;;;;;;3.50;1.38;;;19.10;99.90;;;;;;5072688;28;20418;-83
2023/08/03 07:59:12;;;;;;;8.50;1.60;;;19.20;99.90;;;;;;5048350;28;20441;-83
2023/08/03 08:01:38;;;;;;;6.03;1.70;;;19.50;99.90;;;;;;5034091;28;20424;-83
2023/08/03 08:04:04;;;;;;;6.70;1.50;;;19.50;99.90;;;;;;5051718;28;20402;-84
2023/08/03 08:06:30;;;;;;;6.28;1.50;;;19.30;99.90;;;;;;5043798;28;20426;-83
2023/08/03 08:08:56;;;;;;;4.38;1.33;;;19.50;99.90;;;;;;5077618;28;20448;-83
2023/08/03 08:11:21;;;;;;;3.90;1.30;;;19.30;99.90;;;;;;5051086;28;21008;-82
2023/08/03 08:13:47;;;;;;;4.37;1.50;;;19.50;99.90;;;;;;5043918;28;20494;-82
2023/08/03 08:16:14;;;;;;;4.63;1.77;;;19.40;99.90;;;;;;5043891;28;20469;-82
2023/08/03 08:18:41;;;;;;;4.90;1.33;;;19.50;99.90;;;;;;5068947;28;21046;-85
2023/08/03 08:21:08;;;;;;;4.85;1.40;;;19.70;99.90;;;;;;5070472;28;20764;-83
2023/08/03 08:23:35;;;;;;;6.43;1.50;;;19.70;99.90;;;;;;5026719;28;20454;-84
2023/08/03 08:26:02;;;;;;;3.75;1.50;;;20.10;99.90;;;;;;5064560;28;20457;-81
2023/08/03 08:28:29;;;;;;;3.37;1.57;;;19.80;99.90;;;;;;5029778;28;20411;-84
2023/08/03 08:30:55;;;;;;;6.97;1.70;;;20.20;99.90;;;;;;5058682;28;20424;-85
2023/08/03 08:33:21;;;;;;;4.40;1.60;;;19.90;99.90;;;;;;5054676;28;20411;-84
2023/08/03 08:35:49;;;;;;;4.28;1.45;;;19.80;99.90;;;;;;5056672;28;20760;-85
2023/08/03 08:38:16;;;;;;;7.63;1.50;;;20.00;99.90;;;;;;5056460;28;20487;-83
2023/08/03 08:40:43;;;;;;;3.72;1.35;;;20.10;99.90;;;;;;5067643;28;20477;-84
2023/08/03 08:43:08;;;;;;;4.55;1.25;;;20.40;99.90;;;;;;5062689;28;20977;-84
2023/08/03 08:45:35;;;;;;;3.80;1.42;;;20.40;99.90;;;;;;5027055;28;20445;-83
2023/08/03 08:48:02;;;;;;;4.40;1.33;;;20.40;99.90;;;;;;5075343;28;20466;-85
2023/08/03 08:50:28;;;;;;;5.43;1.50;;;20.40;99.90;;;;;;5044117;28;20497;-84
2023/08/03 08:52:56;;;;;;;4.25;1.30;;;20.50;99.90;;;;;;5044259;28;20400;-84
2023/08/03 08:55:23;;;;;;;3.95;1.42;;;20.80;99.90;;;;;;5047672;28;20433;-83
2023/08/03 08:57:53;;;;;;;5.70;1.60;;;20.70;99.90;;;;;;5075002;28;20562;-83
2023/08/03 09:00:20;;;;;;;5.72;1.50;;;21.30;99.90;;;;;;5068508;28;20518;-83
2023/08/03 09:02:45;;;;;;;4.68;1.58;;;21.10;99.90;;;;;;5061732;28;20424;-83
2023/08/03 09:05:20;;;;;;;5.82;1.80;;;21.30;99.90;;;;;;5036472;28;20480;-83
2023/08/03 09:08:02;;;;;;;5.65;1.90;;;21.50;99.90;;;;;;5043459;28;20420;-82
2023/08/03 09:10:28;;;;;;;5.20;1.67;;;21.10;99.90;;;;;;5060400;28;20445;-83
2023/08/03 09:12:54;;;;;;;7.30;1.92;;;21.20;99.90;;;;;;5077906;28;20430;-83
2023/08/03 09:15:42;;;;;;;8.20;1.90;;;21.50;99.90;;;;;;5050113;28;20402;-82
2023/08/03 09:18:08;;;;;;;5.60;1.80;;;21.30;99.90;;;;;;5046570;28;21532;-82
2023/08/03 09:20:34;;;;;;;6.50;2.00;;;19.60;99.90;;;;;;5023145;28;20424;-81
2023/08/03 09:23:01;;;;;;;6.22;1.95;;;21.20;99.90;;;;;;5057435;28;20424;-82
2023/08/03 09:25:28;;;;;;;6.57;2.10;;;21.30;99.90;;;;;;5072349;28;20422;-82
2023/08/03 09:27:55;;;;;;;6.05;1.75;;;21.30;99.90;;;;;;5082741;28;20443;-82
2023/08/03 09:30:24;;;;;;;9.87;2.10;;;21.40;99.90;;;;;;5066895;28;20842;-81
2023/08/03 09:32:50;;;;;;;8.27;1.85;;;19.80;99.90;;;;;;5038585;28;20423;-81
2023/08/03 09:35:21;;;;;;;5.95;2.20;;;21.80;99.90;;;;;;5041896;28;20412;-81
2023/08/03 09:37:49;;;;;;;7.47;1.90;;;21.90;99.90;;;;;;5050671;28;20422;-82
2023/08/03 09:40:17;;;;;;;5.95;1.95;;;21.90;99.90;;;;;;5052391;28;20447;-81
2023/08/03 09:42:44;;;;;;;5.90;2.05;;;21.90;99.90;;;;;;5039910;28;20403;-81
2023/08/03 09:45:11;;;;;;;6.40;1.97;;;21.70;99.90;;;;;;5054168;28;20939;-81
2023/08/03 09:47:40;;;;;;;5.63;1.93;;;21.80;99.90;;;;;;5059828;28;20500;-81
2023/08/03 09:50:08;;;;;;;4.68;1.60;;;22.10;99.90;;;;;;5034297;28;20516;-80
2023/08/03 09:52:43;;;;;;;6.60;1.80;;;22.10;99.90;;;;;;5023305;28;20481;-82
2023/08/03 09:55:13;;;;;;;4.65;1.70;;;22.30;99.90;;;;;;5049823;28;20913;-81
2023/08/03 09:57:42;;;;;;;5.60;1.63;;;22.30;99.90;;;;;;5053845;28;20577;-81
2023/08/03 10:00:11;;;;;;;5.47;1.77;;;22.90;99.90;;;;;;5058837;28;20475;-82
2023/08/03 10:02:57;;;;;;;6.30;1.75;;;22.40;99.90;;;;;;5074802;28;20418;-81
2023/08/03 10:05:27;;;;;;;4.43;1.42;;;22.60;99.90;;;;;;5045086;28;20411;-81
2023/08/03 10:08:03;;;;;;;7.75;1.63;;;22.70;99.90;;;;;;5049236;28;20418;-83
2023/08/03 10:10:31;;;;;;;6.37;1.80;;;22.80;99.90;;;;;;5071775;28;20415;-83
2023/08/03 10:13:04;;;;;;;8.38;1.77;;;22.40;99.90;;;;;;5048367;28;20434;-80
2023/08/03 10:15:31;;;;;;;4.97;1.70;;;22.30;99.90;;;;;;5075928;28;20404;-82
2023/08/03 10:17:57;;;;;;;5.32;1.65;;;22.40;99.90;;;;;;5055788;28;20424;-82
2023/08/03 10:20:24;;;;;;;4.35;1.60;;;22.80;99.90;;;;;;5051940;28;20434;-82
2023/08/03 10:23:11;;;;;;;5.78;1.60;;;23.00;99.90;;;;;;5033754;28;20876;-80
2023/08/03 10:25:50;;;;;;;5.50;1.75;;;22.70;99.90;;;;;;5056548;28;20435;-81
2023/08/03 10:28:15;;;;;;;5.43;1.92;;;23.00;99.90;;;;;;5043480;28;20393;-82
2023/08/03 10:31:07;;;;;;;6.13;1.83;;;23.00;99.90;;;;;;5058065;28;20410;-82
2023/08/03 10:33:50;;;;;;;6.40;2.43;;;22.90;99.90;;;;;;5067240;28;20425;-83
2023/08/03 10:39:04;;;;;;;7.35;1.83;;;22.40;99.90;;;;;;5069256;28;20431;-81
2023/08/03 10:41:37;;;;;;;8.45;2.22;;;21.80;99.90;;;;;;5052926;28;20487;-82
2023/08/03 10:44:09;;;;;;;5.85;1.77;;;21.90;99.90;;;;;;5059856;28;20449;-83
2023/08/03 10:46:43;;;;;;;5.72;1.77;;;21.90;99.90;;;;;;5074310;28;20422;-82
2023/08/03 10:49:18;;;;;;;4.23;1.30;;;22.10;99.90;;;;;;5058924;28;22279;-81
2023/08/03 10:51:50;;;;;;;5.15;1.10;;;22.30;99.90;;;;;;5056230;28;20414;-82
2023/08/03 10:54:18;;;;;;;3.72;1.20;;;22.50;99.90;;;;;;5057956;28;20777;-81
2023/08/03 10:57:06;;;;;;;6.25;1.60;;;22.50;99.90;;;;;;5044618;28;20414;-82
2023/08/03 10:59:39;;;;;;;4.53;1.23;;;22.60;99.90;;;;;;5074859;28;20969;-82
2023/08/03 11:02:19;;;;;;;3.88;1.27;;;22.50;99.90;;;;;;5044941;28;20419;-82
2023/08/03 11:04:52;;;;;;;3.30;1.20;;;22.40;99.90;;;;;;5068536;28;20848;-81
2023/08/03 11:07:27;;;;;;;3.95;1.27;;;22.30;99.90;;;;;;5023806;28;20527;-82
2023/08/03 11:09:53;;;;;;;6.30;1.40;;;22.10;99.90;;;;;;5072041;28;20766;-81
2023/08/03 11:12:22;;;;;;;5.50;1.45;;;21.80;99.90;;;;;;5074486;28;20402;-83
2023/08/03 11:14:50;;;;;;;5.75;1.58;;;21.20;99.90;;;;;;5046460;28;20406;-80
2023/08/03 11:17:16;;;;;;;3.03;1.15;;;22.00;99.90;;;;;;5036154;28;20433;-83
2023/08/03 11:19:43;;;;;;;6.13;1.23;;;22.40;99.90;;;;;;5039279;28;20421;-80
2023/08/03 11:22:10;;;;;;;5.13;1.50;;;22.50;99.90;;;;;;5070610;28;20751;-81
2023/08/03 11:24:36;;;;;;;3.13;1.10;;;22.60;99.90;;;;;;5067541;28;20635;-81
2023/08/03 11:27:03;;;;;;;4.72;1.60;;;22.40;99.90;;;;;;5040127;28;20508;-81
2023/08/03 11:29:31;;;;;;;6.28;1.77;;;22.70;99.90;;;;;;5075859;28;20747;-81
2023/08/03 11:31:56;;;;;;;4.38;1.33;;;22.80;99.90;;;;;;5063061;28;20420;-84
2023/08/03 11:34:24;;;;;;;4.57;1.40;;;23.00;99.90;;;;;;5066797;28;20433;-82
2023/08/03 11:36:51;;;;;;;4.67;1.37;;;23.00;99.90;;;;;;5039272;28;20498;-82
2023/08/03 11:39:19;;;;;;;4.32;1.20;;;23.00;99.90;;;;;;5045437;28;20525;-83
2023/08/03 11:41:50;;;;;;;3.28;1.10;;;22.80;99.90;;;;;;5077055;28;20421;-83
2023/08/03 11:44:21;;;;;;;4.80;1.30;;;22.50;99.90;;;;;;5052827;28;20402;-82
2023/08/03 11:46:49;;;;;;;3.50;1.25;;;22.40;99.90;;;;;;5079014;28;20993;-82
2023/08/03 11:49:16;;;;;;;4.05;1.30;;;22.50;99.90;;;;;;5039506;28;20414;-82
2023/08/03 11:51:41;;;;;;;4.30;1.23;;;22.50;99.90;;;;;;5080748;28;20430;-79
2023/08/03 11:54:21;;;;;;;4.07;1.30;;;22.40;99.90;;;;;;5061616;28;20414;-83
2023/08/03 11:56:50;;;;;;;3.10;1.00;;;22.50;99.90;;;;;;5076315;28;20409;-85
2023/08/03 11:59:16;;;;;;;4.05;1.45;;;22.20;99.90;;;;;;5060630;28;20492;-85
2023/08/03 12:01:49;;;;;;;4.30;1.30;;;22.20;99.90;;;;;;5074566;28;20934;-82
2023/08/03 12:04:16;;;;;;;2.33;1.10;;;22.20;99.90;;;;;;5032228;28;20427;-83
2023/08/03 12:06:53;;;;;;;4.05;1.45;;;22.30;99.90;;;;;;5042029;28;20420;-83
2023/08/03 12:09:21;;;;;;;3.78;1.40;;;22.50;99.90;;;;;;5059536;28;20406;-85
2023/08/03 12:11:47;;;;;;;5.07;1.70;;;22.50;99.90;;;;;;5055013;28;20415;-84
2023/08/03 12:14:13;;;;;;;4.40;1.52;;;22.80;99.90;;;;;;5072565;28;20914;-83
2023/08/03 12:16:39;;;;;;;4.33;1.60;;;23.00;99.90;;;;;;5041601;28;20428;-83
2023/08/03 12:19:08;;;;;;;4.38;1.90;;;22.90;99.90;;;;;;5020348;28;20422;-84
2023/08/03 12:21:38;;;;;;;5.80;1.95;;;22.50;99.90;;;;;;5072324;28;20442;-83
2023/08/03 12:24:05;;;;;;;5.93;2.10;;;22.10;99.90;;;;;;5072948;28;20422;-83
2023/08/03 12:26:31;;;;;;;12.10;2.40;;;21.60;99.90;;;;;;5060664;28;20901;-82
2023/08/03 12:28:57;;;;;;;6.10;2.03;;;21.40;99.90;;;;;;5070300;28;20417;-81
2023/08/03 12:31:23;;;;;;;8.73;2.42;;;21.50;99.90;;;;;;5059023;28;20500;-82
2023/08/03 12:33:49;;;;;;;7.32;2.20;;;21.40;99.90;;;;;;5044799;28;20394;-80
2023/08/03 12:36:17;;;;;;;6.72;2.15;;;21.70;99.90;;;;;;5076386;28;20421;-83
2023/08/03 12:38:43;;;;;;;6.15;1.90;;;21.60;99.90;;;;;;5063441;28;20453;-80
2023/08/03 12:41:09;;;;;;;6.85;2.05;;;21.30;99.90;;;;;;5046626;28;20422;-82
2023/08/03 12:43:35;;;;;;;6.37;2.07;;;21.30;99.90;;;;;;5052148;28;20419;-82
2023/08/03 12:46:01;;;;;;;6.23;1.47;;;20.80;99.90;;;;;;5065014;28;20990;-81
2023/08/03 12:48:26;;;;;;;4.40;1.55;;;20.80;99.90;;;;;;5076148;28;20422;-82